Time;durP1;ratioP1;P1;durP2;ratioP2;P2;SDS_P1;SDS_P2;PMS_P1;PMS_P2;Temp;Humidity;BMP_temperature;BMP_pressure;BME280_temperature;BME280_humidity;BME280_pressure;Samples;Min_cycle;Max_cycle;Signal;HPM_P1;HPM_P2
2023/03/29 00:00:51;;;;;;;7.35;3.45;;;;;;;4.78;92.11;101495.22;5263546;28;20052;-69
2023/03/29 00:03:23;;;;;;;7.47;3.63;;;;;;;4.80;92.30;101496.13;5263011;28;20029;-67
2023/03/29 00:06:01;;;;;;;9.40;3.30;;;;;;;4.78;92.38;101496.94;5245469;28;20040;-68
2023/03/29 00:08:33;;;;;;;5.85;3.25;;;;;;;4.77;92.82;101490.03;5245778;28;20041;-69
2023/03/29 00:11:04;;;;;;;5.10;3.20;;;;;;;4.81;92.78;101490.13;5263035;28;20111;-68
2023/03/29 00:13:37;;;;;;;6.63;3.37;;;;;;;4.85;92.91;101486.78;5263313;28;20053;-68
2023/03/29 00:16:09;;;;;;;7.35;3.40;;;;;;;4.87;92.47;101489.41;5262784;28;20111;-68
2023/03/29 00:18:40;;;;;;;6.60;4.13;;;;;;;4.88;93.30;101485.97;5263572;28;20465;-67
2023/03/29 00:21:11;;;;;;;8.23;3.80;;;;;;;4.87;93.50;101481.66;5263077;28;20469;-67
2023/03/29 00:23:43;;;;;;;4.80;3.50;;;;;;;4.87;93.29;101481.66;5262758;28;20028;-68
2023/03/29 00:26:15;;;;;;;5.40;3.20;;;;;;;4.88;93.71;101473.06;5262798;28;20068;-67
2023/03/29 00:28:46;;;;;;;6.27;3.53;;;;;;;4.87;94.02;101477.34;5263156;28;20472;-68
2023/03/29 00:31:18;;;;;;;11.97;4.53;;;;;;;4.90;94.13;101472.25;5262892;28;20166;-67
2023/03/29 00:33:49;;;;;;;5.33;3.40;;;;;;;4.88;93.95;101462.72;5262862;28;20040;-67
2023/03/29 00:36:22;;;;;;;7.10;3.20;;;;;;;4.85;94.66;101471.28;5261555;28;20055;-68
2023/03/29 00:38:55;;;;;;;5.07;2.88;;;;;;;4.84;94.60;101474.69;5263089;28;20052;-68
2023/03/29 00:41:26;;;;;;;6.47;3.45;;;;;;;4.82;94.92;101470.34;5262480;28;20115;-67
2023/03/29 00:44:01;;;;;;;7.33;3.30;;;;;;;4.84;94.66;101471.25;5261288;28;20171;-67
2023/03/29 00:46:33;;;;;;;9.77;3.47;;;;;;;4.88;94.59;101463.59;5245256;28;20032;-68
2023/03/29 00:49:11;;;;;;;4.45;2.75;;;;;;;4.95;93.92;101467.19;5244975;28;20037;-67
2023/03/29 00:51:43;;;;;;;5.05;3.08;;;;;;;4.99;93.44;101463.84;5262936;28;20061;-67
2023/03/29 00:54:18;;;;;;;6.57;3.13;;;;;;;5.02;93.45;101463.00;5263205;28;20463;-68
2023/03/29 00:56:50;;;;;;;5.03;2.80;;;;;;;5.05;93.62;101460.50;5263267;28;20120;-69
2023/03/29 00:59:26;;;;;;;5.57;3.10;;;;;;;5.08;93.04;101458.84;5262603;28;20127;-68
2023/03/29 01:02:08;;;;;;;4.75;2.70;;;;;;;5.10;92.69;101445.94;5245577;28;20346;-68
2023/03/29 01:04:52;;;;;;;6.47;3.08;;;;;;;5.11;93.21;101450.28;5261314;28;20461;-68
2023/03/29 01:07:36;;;;;;;6.15;2.85;;;;;;;5.12;93.29;101444.28;5262252;28;20496;-68
2023/03/29 01:10:13;;;;;;;8.32;3.42;;;;;;;5.14;94.01;101447.75;5262374;28;20110;-68
2023/03/29 01:12:48;;;;;;;4.13;2.80;;;;;;;5.14;93.96;101447.75;5262965;28;20449;-68
2023/03/29 01:15:24;;;;;;;5.10;2.92;;;;;;;5.15;94.26;101446.91;5266551;28;20040;-69
2023/03/29 01:17:57;;;;;;;7.88;2.95;;;;;;;5.18;94.30;101438.34;5266315;28;20044;-67
2023/03/29 01:21:05;;;;;;;6.93;3.55;;;;;;;5.17;95.02;101445.25;5266905;28;20028;-68
2023/03/29 01:23:52;;;;;;;5.65;3.28;;;;;;;5.19;95.13;101440.97;5266489;28;20037;-69
2023/03/29 01:26:33;;;;;;;8.98;3.28;;;;;;;5.20;95.45;101439.25;5265505;28;20040;-68
2023/03/29 01:29:16;;;;;;;9.55;3.42;;;;;;;5.21;95.51;101435.81;5266406;28;20032;-68
2023/03/29 01:31:53;;;;;;;;;;;;;;;5.26;95.30;101417.00;5267040;28;20449;-67
2023/03/29 01:34:34;;;;;;;7.18;3.10;;;;;;;5.23;96.13;101418.63;5266130;28;20410;-67
2023/03/29 01:37:36;;;;;;;8.70;3.65;;;;;;;5.27;96.12;101416.13;5266277;28;20025;-67
2023/03/29 01:40:08;;;;;;;8.50;2.90;;;;;;;5.26;96.25;101410.94;5266165;28;20116;-67
2023/03/29 01:43:15;;;;;;;8.50;3.73;;;;;;;5.29;96.36;101408.41;5266194;28;20029;-67
2023/03/29 01:46:12;;;;;;;10.57;3.83;;;;;;;5.29;96.25;101405.81;5242847;28;20053;-67
2023/03/29 01:49:19;;;;;;;7.68;3.63;;;;;;;5.32;96.10;101410.19;5265798;28;20025;-68
2023/03/29 01:52:06;;;;;;;9.57;3.50;;;;;;;5.33;96.06;101401.56;5265971;28;20021;-68
2023/03/29 01:54:42;;;;;;;10.25;3.78;;;;;;;5.32;96.66;101392.97;5266512;28;20079;-68
2023/03/29 01:57:15;;;;;;;7.97;3.03;;;;;;;5.33;96.73;101392.13;5265861;28;20032;-68
2023/03/29 01:59:48;;;;;;;9.98;3.40;;;;;;;5.32;97.02;101382.63;5265476;28;20036;-68
2023/03/29 02:02:22;;;;;;;7.78;2.83;;;;;;;5.34;97.00;101383.50;5265731;28;20540;-68
2023/03/29 02:04:54;;;;;;;7.55;3.80;;;;;;;5.35;97.01;101387.84;5265859;28;20029;-67
2023/03/29 02:07:29;;;;;;;;;;;;;;;5.39;96.96;101373.25;5265419;28;20029;-67
2023/03/29 02:10:02;;;;;;;6.57;2.80;;;;;;;5.34;97.13;101372.31;5266030;28;20411;-67
2023/03/29 02:12:33;;;;;;;5.47;2.70;;;;;;;5.35;97.71;101369.75;5265497;28;20067;-68
2023/03/29 02:15:11;;;;;;;6.90;3.23;;;;;;;5.36;97.11;101358.59;5265616;28;20037;-68
2023/03/29 02:17:43;;;;;;;9.15;3.25;;;;;;;5.39;97.25;101362.91;5266080;28;20029;-68
2023/03/29 02:20:17;;;;;;;6.68;3.00;;;;;;;5.39;96.93;101353.44;5265375;28;20116;-67
2023/03/29 02:23:08;;;;;;;15.23;3.78;;;;;;;5.40;97.11;101344.84;5266219;28;20024;-66
2023/03/29 02:25:40;;;;;;;6.53;2.70;;;;;;;5.41;96.37;101361.22;5265655;28;20114;-68
2023/03/29 02:28:12;;;;;;;6.55;2.97;;;;;;;5.43;95.86;101355.25;5265974;28;20143;-68
2023/03/29 02:30:52;;;;;;;9.95;4.25;;;;;;;5.46;95.28;101352.72;5265001;28;20056;-66
2023/03/29 02:33:30;;;;;;;6.00;3.00;;;;;;;5.48;94.24;101345.84;5265814;28;20449;-67
2023/03/29 02:36:40;;;;;;;5.28;2.85;;;;;;;5.56;94.56;101347.72;5265076;28;20029;-67
2023/03/29 02:39:14;;;;;;;8.50;2.80;;;;;;;5.56;93.62;101345.13;5265520;28;20082;-67
2023/03/29 02:41:49;;;;;;;5.35;3.17;;;;;;;5.58;92.72;101339.09;5264948;28;20021;-67
2023/03/29 02:44:25;;;;;;;6.82;2.80;;;;;;;5.59;92.99;101345.19;5265107;28;20036;-69
2023/03/29 02:47:06;;;;;;;4.47;2.60;;;;;;;5.62;92.52;101338.34;5267030;28;20028;-67
2023/03/29 02:49:38;;;;;;;6.05;2.70;;;;;;;5.64;91.77;101330.59;5265008;28;20025;-68
2023/03/29 02:52:21;;;;;;;5.23;2.47;;;;;;;5.66;91.38;101329.75;5247739;28;20032;-68
2023/03/29 02:54:54;;;;;;;7.75;3.05;;;;;;;5.70;90.64;101320.34;5265324;28;20036;-68
2023/03/29 02:57:27;;;;;;;7.78;4.07;;;;;;;5.71;90.47;101316.91;5264425;28;20037;-68
2023/03/29 02:59:59;;;;;;;6.00;2.20;;;;;;;5.74;90.17;101321.25;5264998;28;20033;-67
2023/03/29 03:02:32;;;;;;;4.93;2.83;;;;;;;5.74;89.98;101319.53;5264633;28;20452;-68
2023/03/29 03:05:04;;;;;;;7.40;2.90;;;;;;;5.75;89.03;101316.13;5264495;28;20041;-68
2023/03/29 03:07:36;;;;;;;5.93;2.28;;;;;;;5.78;88.79;101320.44;5264475;28;20122;-68
2023/03/29 03:10:09;;;;;;;5.50;2.43;;;;;;;5.80;88.05;101316.19;5264492;28;20119;-68
2023/03/29 03:12:41;;;;;;;5.72;2.38;;;;;;;5.83;87.84;101324.00;5262866;28;20094;-68
2023/03/29 03:15:13;;;;;;;5.10;2.47;;;;;;;5.83;87.99;101317.09;5262809;28;20112;-68
2023/03/29 03:17:45;;;;;;;9.90;3.27;;;;;;;5.85;87.44;101312.81;5264387;28;20167;-67
2023/03/29 03:20:17;;;;;;;5.63;2.50;;;;;;;5.86;87.59;101318.88;5263047;28;20029;-68
2023/03/29 03:22:48;;;;;;;7.53;2.73;;;;;;;5.87;87.58;101314.56;5264715;28;20037;-68
2023/03/29 03:25:20;;;;;;;5.87;2.37;;;;;;;5.87;87.28;101310.25;5264747;28;20033;-68
2023/03/29 03:27:52;;;;;;;9.00;3.70;;;;;;;5.89;86.50;101305.97;5264903;28;20044;-68
2023/03/29 03:30:23;;;;;;;5.00;2.35;;;;;;;5.90;86.64;101306.84;5264097;28;20029;-69
2023/03/29 03:32:54;;;;;;;7.87;2.60;;;;;;;5.91;86.17;101301.69;5264128;28;20044;-69
2023/03/29 03:35:26;;;;;;;3.90;2.20;;;;;;;5.93;86.26;101301.72;5262864;28;20358;-69
2023/03/29 03:37:57;;;;;;;6.87;2.37;;;;;;;5.93;86.25;101309.47;5263270;28;20403;-67
2023/03/29 03:40:29;;;;;;;6.63;2.70;;;;;;;5.93;86.53;101312.94;5263769;28;20427;-67
2023/03/29 03:43:00;;;;;;;6.37;2.40;;;;;;;5.94;86.42;101306.91;5245836;28;20235;-66
2023/03/29 03:45:31;;;;;;;6.97;3.70;;;;;;;5.93;86.47;101305.16;5263698;28;20033;-67
2023/03/29 03:48:03;;;;;;;7.13;3.90;;;;;;;5.95;86.47;101303.47;5263957;28;20334;-67
2023/03/29 03:50:34;;;;;;;5.73;2.87;;;;;;;5.96;86.62;101313.00;5246444;28;20115;-68
2023/03/29 03:53:06;;;;;;;4.90;2.47;;;;;;;5.98;86.24;101311.31;5262342;28;20069;-68
2023/03/29 03:55:38;;;;;;;3.97;2.77;;;;;;;5.97;86.17;101311.28;5263834;28;20033;-68
2023/03/29 03:58:09;;;;;;;5.63;2.55;;;;;;;5.97;86.62;101299.25;5264280;28;20029;-68
2023/03/29 04:00:41;;;;;;;5.50;2.53;;;;;;;5.98;86.60;101302.69;5263994;28;20032;-68
2023/03/29 04:03:13;;;;;;;6.80;2.70;;;;;;;5.97;86.16;101295.75;5263021;28;20040;-68
2023/03/29 04:05:46;;;;;;;7.00;2.80;;;;;;;5.97;85.94;101300.94;5263282;28;20108;-68
2023/03/29 04:08:17;;;;;;;6.45;2.72;;;;;;;5.97;86.39;101295.75;5263491;28;20060;-68
2023/03/29 04:10:54;;;;;;;5.20;2.63;;;;;;;5.97;86.66;101298.34;5263482;28;20150;-68
2023/03/29 04:13:26;;;;;;;6.35;2.90;;;;;;;5.96;86.01;101289.72;5263038;28;20491;-68
2023/03/29 04:15:57;;;;;;;5.83;3.00;;;;;;;5.97;86.28;101293.16;5263717;28;20033;-68
2023/03/29 04:18:28;;;;;;;6.27;2.80;;;;;;;5.94;86.59;101281.03;5262837;28;20357;-68
2023/03/29 04:21:00;;;;;;;7.13;3.00;;;;;;;5.96;86.76;101288.84;5261959;28;20443;-69
2023/03/29 04:23:31;;;;;;;5.33;2.87;;;;;;;5.98;86.60;101290.59;5262895;28;20029;-67
2023/03/29 04:26:03;;;;;;;6.17;3.13;;;;;;;5.99;86.50;101289.75;5263004;28;20417;-68
2023/03/29 04:28:34;;;;;;;5.73;2.47;;;;;;;5.99;86.63;101276.84;5262965;28;20112;-68
2023/03/29 04:31:13;;;;;;;4.13;2.73;;;;;;;6.00;86.96;101283.72;5262863;28;20037;-68
2023/03/29 04:33:46;;;;;;;5.28;2.88;;;;;;;6.02;86.44;101279.47;5263384;28;20033;-68
2023/03/29 04:36:17;;;;;;;6.60;3.35;;;;;;;6.03;86.26;101285.50;5261687;28;20482;-68
2023/03/29 04:38:51;;;;;;;6.90;3.30;;;;;;;6.03;86.95;101276.00;5262514;28;20119;-68
2023/03/29 04:41:22;;;;;;;7.20;3.00;;;;;;;6.06;86.63;101274.34;5262711;28;20056;-68
2023/03/29 04:43:54;;;;;;;6.33;3.03;;;;;;;6.06;86.71;101275.19;5262112;28;20033;-68
2023/03/29 04:46:26;;;;;;;7.00;2.80;;;;;;;6.09;86.14;101280.41;5245144;28;20021;-68
2023/03/29 04:48:57;;;;;;;6.17;2.93;;;;;;;6.13;86.22;101289.94;5261433;28;20089;-68
2023/03/29 04:51:29;;;;;;;8.00;3.70;;;;;;;6.13;86.12;101277.00;5262876;28;20373;-69
2023/03/29 04:54:00;;;;;;;4.60;3.10;;;;;;;6.15;86.51;101277.03;5262604;28;20047;-68
2023/03/29 04:56:31;;;;;;;7.67;2.50;;;;;;;6.16;86.60;101265.81;5262543;28;20437;-69
2023/03/29 04:59:03;;;;;;;6.23;3.13;;;;;;;6.18;86.42;101270.19;5262467;28;20452;-68
2023/03/29 05:01:34;;;;;;;7.80;3.90;;;;;;;6.23;86.60;101269.34;5262784;28;20025;-68
2023/03/29 05:04:06;;;;;;;6.60;3.13;;;;;;;6.22;86.50;101276.25;5262464;28;20033;-69
2023/03/29 05:06:37;;;;;;;5.67;2.83;;;;;;;6.26;86.01;101266.81;5262778;28;20025;-68
2023/03/29 05:09:09;;;;;;;7.07;3.17;;;;;;;6.27;86.30;101268.56;5261354;28;20037;-68
2023/03/29 05:11:40;;;;;;;6.87;3.30;;;;;;;6.31;85.83;101259.97;5262358;28;20129;-68
2023/03/29 05:14:12;;;;;;;8.90;3.23;;;;;;;6.32;85.96;101252.22;5261048;28;20053;-67
2023/03/29 05:16:43;;;;;;;4.87;3.03;;;;;;;6.36;86.15;101259.19;5262320;28;20033;-67
2023/03/29 05:19:15;;;;;;;6.77;3.80;;;;;;;6.36;85.87;101256.59;5262693;28;20064;-67
2023/03/29 05:21:48;;;;;;;7.28;3.60;;;;;;;6.41;85.71;101261.84;5262571;28;20036;-68
2023/03/29 05:24:21;;;;;;;8.10;3.30;;;;;;;6.44;85.70;101261.88;5262422;28;20021;-67
2023/03/29 05:26:52;;;;;;;8.77;4.07;;;;;;;6.51;85.42;101260.22;5244546;28;20124;-68
2023/03/29 05:29:24;;;;;;;8.17;3.77;;;;;;;6.54;85.49;101261.13;5262128;28;20075;-68
2023/03/29 05:31:55;;;;;;;6.90;3.53;;;;;;;6.58;85.53;101267.19;5261849;28;20025;-67
2023/03/29 05:34:26;;;;;;;9.23;3.70;;;;;;;6.58;85.43;101269.78;5260669;28;20033;-67
2023/03/29 05:36:58;;;;;;;7.27;3.40;;;;;;;6.60;85.54;101269.81;5260852;28;20037;-67
2023/03/29 05:39:32;;;;;;;6.77;3.17;;;;;;;6.63;85.31;101275.03;5261983;28;20465;-67
2023/03/29 05:42:04;;;;;;;7.97;3.78;;;;;;;6.67;85.12;101280.25;5260804;28;20044;-68
2023/03/29 05:44:36;;;;;;;9.40;3.50;;;;;;;6.70;85.43;101282.03;5262139;28;20029;-68
2023/03/29 05:47:07;;;;;;;9.87;3.30;;;;;;;6.72;84.92;101267.38;5262136;28;20040;-67
2023/03/29 05:49:38;;;;;;;10.30;3.50;;;;;;;6.74;85.39;101284.66;5261736;28;20388;-69
2023/03/29 05:52:10;;;;;;;9.00;3.70;;;;;;;6.79;85.07;101269.16;5262462;28;20432;-68
2023/03/29 05:54:41;;;;;;;8.07;3.73;;;;;;;6.82;85.01;101269.19;5262337;28;20507;-68
2023/03/29 05:57:13;;;;;;;8.03;3.30;;;;;;;6.87;84.84;101277.00;5262046;28;20048;-68
2023/03/29 05:59:44;;;;;;;9.07;3.60;;;;;;;6.89;84.88;101278.78;5262765;28;20078;-68
2023/03/29 06:02:15;;;;;;;8.73;4.13;;;;;;;6.92;85.08;101276.22;5264324;28;20516;-67
2023/03/29 06:04:47;;;;;;;8.40;3.67;;;;;;;6.97;84.67;101272.78;5266338;28;20029;-68
2023/03/29 06:07:18;;;;;;;7.63;4.03;;;;;;;6.98;84.72;101277.13;5265816;28;20032;-68
2023/03/29 06:09:50;;;;;;;6.57;3.93;;;;;;;6.98;85.38;101272.81;5265999;28;20057;-68
2023/03/29 06:12:23;;;;;;;9.37;4.50;;;;;;;7.05;84.83;101273.72;5265579;28;20506;-68
2023/03/29 06:14:57;;;;;;;6.80;3.50;;;;;;;7.06;84.81;101275.47;5266303;28;20092;-68
2023/03/29 06:17:29;;;;;;;6.65;2.72;;;;;;;7.07;84.98;101280.69;5265334;28;20044;-69
2023/03/29 06:20:01;;;;;;;6.57;3.65;;;;;;;7.10;85.43;101279.84;5248062;28;20384;-69
2023/03/29 06:22:32;;;;;;;11.67;4.20;;;;;;;7.14;85.08;101284.19;5265605;28;20033;-69
2023/03/29 06:25:04;;;;;;;10.20;3.53;;;;;;;7.17;85.12;101284.22;5265951;28;20036;-67
2023/03/29 06:27:36;;;;;;;7.40;3.80;;;;;;;7.21;84.87;101279.94;5265094;28;20033;-67
2023/03/29 06:30:08;;;;;;;7.27;4.07;;;;;;;7.23;85.05;101279.09;5265178;28;20357;-67
2023/03/29 06:32:40;;;;;;;8.70;3.60;;;;;;;7.26;84.96;101280.84;5265834;28;20052;-68
2023/03/29 06:35:11;;;;;;;7.93;3.45;;;;;;;7.30;85.26;101282.63;5265481;28;20033;-67
2023/03/29 06:37:48;;;;;;;7.83;4.07;;;;;;;7.33;85.06;101284.38;5265234;28;20151;-67
2023/03/29 06:40:23;;;;;;;9.43;3.50;;;;;;;7.37;85.08;101274.00;5248142;28;20025;-67
2023/03/29 06:42:58;;;;;;;9.20;3.58;;;;;;;7.42;85.61;101276.66;5247150;28;20069;-67
2023/03/29 06:45:35;;;;;;;8.52;4.00;;;;;;;7.49;84.92;101279.31;5264985;28;20449;-68
2023/03/29 06:48:07;;;;;;;11.55;3.88;;;;;;;7.57;85.13;101278.50;5265368;28;20024;-67
2023/03/29 06:50:38;;;;;;;7.53;3.63;;;;;;;7.61;84.97;101268.13;5264971;28;20043;-67
2023/03/29 06:53:10;;;;;;;9.30;4.17;;;;;;;7.72;84.70;101272.56;5246945;28;20033;-67
2023/03/29 06:55:41;;;;;;;6.43;3.80;;;;;;;7.82;84.76;101276.94;5264797;28;20036;-67
2023/03/29 06:58:14;;;;;;;11.63;4.17;;;;;;;7.89;84.51;101276.13;5264728;28;20032;-67
2023/03/29 07:00:45;;;;;;;7.55;3.75;;;;;;;7.94;83.93;101274.44;5264657;28;20033;-67
2023/03/29 07:03:22;;;;;;;8.83;4.37;;;;;;;8.02;83.94;101280.53;5263618;28;20115;-67
2023/03/29 07:06:01;;;;;;;8.50;4.20;;;;;;;8.08;84.04;101282.28;5265500;28;20029;-67
2023/03/29 07:08:34;;;;;;;8.65;4.85;;;;;;;8.11;83.95;101291.81;5263607;28;20413;-67
2023/03/29 07:11:05;;;;;;;8.65;4.40;;;;;;;8.08;84.34;101291.81;5263623;28;20469;-67
2023/03/29 07:13:41;;;;;;;8.10;3.70;;;;;;;8.10;84.52;101293.56;5263331;28;20057;-68
2023/03/29 07:16:12;;;;;;;9.95;4.45;;;;;;;8.12;84.49;101288.38;5264348;28;20465;-68
2023/03/29 07:18:44;;;;;;;8.57;3.73;;;;;;;8.11;84.72;101282.28;5264320;28;20033;-69
2023/03/29 07:21:16;;;;;;;11.33;4.10;;;;;;;8.18;84.64;101294.47;5264089;28;20086;-68
2023/03/29 07:23:47;;;;;;;14.63;4.37;;;;;;;8.23;84.56;101294.50;5262995;28;20025;-69
2023/03/29 07:26:19;;;;;;;10.77;4.27;;;;;;;8.28;84.42;101291.94;5264209;28;20029;-68
2023/03/29 07:28:50;;;;;;;8.53;3.97;;;;;;;8.33;84.31;101305.81;5264434;28;20033;-68
2023/03/29 07:31:22;;;;;;;10.47;3.83;;;;;;;8.32;84.47;101302.34;5264098;28;20029;-68
2023/03/29 07:33:54;;;;;;;9.33;3.73;;;;;;;8.38;84.75;101299.75;5263753;28;20025;-68
2023/03/29 07:36:27;;;;;;;7.47;4.10;;;;;;;8.46;84.50;101310.22;5263108;28;20048;-68
2023/03/29 07:39:00;;;;;;;;;;;;;;;8.53;84.01;101321.50;5264832;28;20067;-68
2023/03/29 07:41:31;;;;;;;;;;;;;;;8.53;84.07;101325.00;5263948;28;19913;-68
2023/03/29 07:44:07;;;;;;;9.55;3.80;;;;;;;8.48;84.21;101329.28;5263905;28;20454;-67
2023/03/29 07:46:39;;;;;;;11.18;4.22;;;;;;;8.47;84.96;101332.75;5264325;28;20139;-68
2023/03/29 07:49:10;;;;;;;10.40;5.07;;;;;;;8.47;85.27;101340.53;5263431;28;20112;-68
2023/03/29 07:51:42;;;;;;;11.17;4.50;;;;;;;8.48;85.52;101328.41;5246606;28;20357;-68
2023/03/29 07:54:13;;;;;;;8.93;4.65;;;;;;;8.44;86.20;101324.94;5263686;28;20366;-69
2023/03/29 07:56:46;;;;;;;14.03;5.33;;;;;;;8.46;86.35;101327.53;5262358;28;20032;-68
2023/03/29 07:59:18;;;;;;;8.80;4.40;;;;;;;8.49;87.03;101323.22;5264364;28;20108;-68
2023/03/29 08:01:50;;;;;;;8.10;4.10;;;;;;;8.49;88.40;101331.00;5263323;28;20224;-68
2023/03/29 08:04:22;;;;;;;8.93;3.97;;;;;;;8.50;89.97;101329.28;5262814;28;20029;-68
2023/03/29 08:06:54;;;;;;;8.17;4.13;;;;;;;8.51;90.96;101321.50;5263409;28;20040;-69
2023/03/29 08:09:26;;;;;;;7.13;4.13;;;;;;;8.54;91.70;101313.72;5245251;28;20028;-68
2023/03/29 08:11:57;;;;;;;7.07;4.93;;;;;;;8.56;91.86;101308.53;5262360;28;20167;-68
2023/03/29 08:14:29;;;;;;;8.20;4.33;;;;;;;8.70;92.23;101314.63;5263320;28;20135;-69
2023/03/29 08:17:00;;;;;;;9.30;4.37;;;;;;;8.72;92.46;101312.91;5264017;28;20096;-68
2023/03/29 08:19:31;;;;;;;9.67;5.20;;;;;;;8.68;92.80;101325.91;5263633;28;20099;-68
2023/03/29 08:22:03;;;;;;;10.00;4.20;;;;;;;8.70;93.62;101322.44;5265439;28;20120;-68
2023/03/29 08:24:35;;;;;;;10.20;4.73;;;;;;;8.79;93.89;101326.81;5263717;28;20028;-68
2023/03/29 08:27:06;;;;;;;9.10;5.23;;;;;;;8.92;93.67;101315.56;5245595;28;20067;-68
2023/03/29 08:29:38;;;;;;;12.83;5.60;;;;;;;9.06;93.37;101309.53;5262823;28;20033;-68
2023/03/29 08:32:09;;;;;;;9.47;5.00;;;;;;;9.16;92.64;101306.09;5263032;28;20283;-69
2023/03/29 08:34:41;;;;;;;12.77;5.17;;;;;;;9.19;92.19;101300.00;5263050;28;20090;-68
2023/03/29 08:37:13;;;;;;;13.07;5.63;;;;;;;9.23;92.29;101302.63;5262644;28;20039;-68
2023/03/29 08:39:45;;;;;;;11.43;4.90;;;;;;;9.30;92.29;101301.75;5261699;28;20626;-68
2023/03/29 08:42:46;;;;;;;8.17;5.07;;;;;;;9.39;92.53;101302.66;5262861;28;20132;-69
2023/03/29 08:45:26;;;;;;;15.75;5.88;;;;;;;9.57;92.35;101299.19;5262718;28;20025;-68
2023/03/29 08:48:16;;;;;;;13.15;5.88;;;;;;;9.61;92.16;101304.38;5263147;28;20139;-68
2023/03/29 08:50:55;;;;;;;11.38;5.78;;;;;;;9.53;92.65;101310.44;5263423;28;20116;-69
2023/03/29 08:53:26;;;;;;;14.32;6.28;;;;;;;9.55;92.28;101303.53;5263422;28;20441;-68
2023/03/29 08:56:01;;;;;;;10.77;5.77;;;;;;;9.73;92.30;101305.25;5262509;28;20040;-69
2023/03/29 08:58:34;;;;;;;11.38;5.32;;;;;;;9.71;92.29;101300.03;5262452;28;20028;-68
2023/03/29 09:01:08;;;;;;;;;;;;;;;9.86;91.16;101304.34;5261897;28;20033;-68
2023/03/29 09:03:41;;;;;;;13.45;5.72;;;;;;;9.74;91.60;101306.97;5262382;28;19923;-69
2023/03/29 09:06:14;;;;;;;8.90;5.00;;;;;;;9.73;91.79;101310.44;5262587;28;20025;-68
2023/03/29 09:08:48;;;;;;;10.85;5.75;;;;;;;9.83;91.42;101309.56;5262532;28;20032;-68
2023/03/29 09:11:22;;;;;;;9.40;5.30;;;;;;;9.78;90.95;101293.94;5261810;28;20044;-69
2023/03/29 09:14:09;;;;;;;11.27;5.72;;;;;;;9.72;91.54;101298.28;5262754;28;20096;-69
2023/03/29 09:16:47;;;;;;;12.98;6.20;;;;;;;9.86;91.74;101297.41;5262817;28;20037;-68
2023/03/29 09:19:28;;;;;;;11.48;5.63;;;;;;;9.78;92.13;101301.75;5262632;28;20027;-69
2023/03/29 09:22:14;;;;;;;8.55;5.03;;;;;;;9.59;92.54;101303.50;5262494;28;20032;-69
2023/03/29 09:25:00;;;;;;;11.57;5.90;;;;;;;9.57;93.11;101302.63;5262414;28;20036;-68
2023/03/29 09:27:40;;;;;;;10.88;5.05;;;;;;;9.65;94.21;101295.69;5262861;28;20473;-68
2023/03/29 09:30:46;;;;;;;11.15;5.30;;;;;;;9.60;93.58;101300.03;5262937;28;20043;-68
2023/03/29 09:33:28;;;;;;;10.77;5.32;;;;;;;9.68;93.93;101300.91;5228696;28;20055;-69
2023/03/29 09:36:07;;;;;;;12.25;5.45;;;;;;;9.88;93.42;101306.94;5265338;28;20119;-69
2023/03/29 09:38:42;;;;;;;11.43;5.70;;;;;;;10.00;93.30;101299.97;5266627;28;20124;-69
2023/03/29 09:41:31;;;;;;;12.20;6.90;;;;;;;10.20;93.40;101312.09;5265888;28;20119;-69
2023/03/29 09:44:14;;;;;;;11.60;5.30;;;;;;;10.08;94.93;101304.28;5266631;28;20036;-67
2023/03/29 09:46:52;;;;;;;11.40;6.47;;;;;;;9.90;95.82;101308.69;5266205;28;20075;-68
2023/03/29 09:49:30;;;;;;;8.50;5.40;;;;;;;9.84;97.19;101300.88;5266885;28;20032;-69
2023/03/29 09:52:07;;;;;;;11.68;5.75;;;;;;;9.95;97.64;101293.03;5265439;28;20036;-69
2023/03/29 09:54:39;;;;;;;14.05;5.45;;;;;;;10.03;98.32;101299.13;5266205;28;20068;-68
2023/03/29 09:57:14;;;;;;;10.20;5.60;;;;;;;10.06;99.25;101296.47;5265993;28;20025;-69
2023/03/29 09:59:48;;;;;;;10.82;5.32;;;;;;;10.11;99.83;101305.19;5265784;28;20259;-69
2023/03/29 10:02:20;;;;;;;8.70;5.50;;;;;;;10.34;99.19;101307.72;5265859;28;20029;-69
2023/03/29 10:05:02;;;;;;;9.82;6.07;;;;;;;10.25;98.76;101307.72;5265813;28;20388;-69
2023/03/29 10:07:45;;;;;;;11.70;5.45;;;;;;;10.25;98.76;101302.50;5265681;28;20043;-68
2023/03/29 10:10:24;;;;;;;13.90;6.65;;;;;;;10.39;98.56;101298.16;5266456;28;20029;-69
2023/03/29 10:13:02;;;;;;;9.23;5.40;;;;;;;10.60;96.76;101296.34;5264427;28;20032;-69
2023/03/29 10:15:34;;;;;;;12.07;5.57;;;;;;;10.60;95.77;101305.91;5265467;28;20103;-68
2023/03/29 10:18:10;;;;;;;13.27;5.70;;;;;;;10.46;97.45;101301.59;5266109;28;20480;-69
2023/03/29 10:20:41;;;;;;;9.65;5.28;;;;;;;10.68;95.82;101304.97;5265832;28;20032;-70
2023/03/29 10:23:17;;;;;;;11.47;5.50;;;;;;;10.76;94.98;101295.38;5265673;28;20029;-69
2023/03/29 10:25:48;;;;;;;11.18;5.82;;;;;;;10.60;95.64;101298.09;5265391;28;20413;-69
2023/03/29 10:28:21;;;;;;;14.57;5.47;;;;;;;10.62;96.39;101294.59;5247561;28;20040;-69
2023/03/29 10:30:55;;;;;;;10.20;5.88;;;;;;;11.08;97.20;101283.88;5265965;28;20027;-68
2023/03/29 10:33:32;;;;;;;9.63;5.28;;;;;;;11.72;93.56;101273.81;5265283;28;20511;-69
2023/03/29 10:36:05;;;;;;;7.97;4.95;;;;;;;12.43;90.11;101272.16;5265917;28;20071;-69
2023/03/29 10:38:37;;;;;;;10.48;5.97;;;;;;;12.77;85.93;101272.59;5247291;28;20029;-67
2023/03/29 10:41:11;;;;;;;8.33;4.73;;;;;;;12.69;85.75;101274.47;5247783;28;20494;-69
2023/03/29 10:43:48;;;;;;;6.88;4.68;;;;;;;12.61;83.45;101274.56;5264870;28;20021;-68
2023/03/29 10:46:22;;;;;;;10.93;5.50;;;;;;;12.51;83.82;101262.47;5265086;28;20064;-68
2023/03/29 10:48:57;;;;;;;7.38;4.40;;;;;;;12.38;84.51;101251.28;5264791;28;20060;-69
2023/03/29 10:51:31;;;;;;;8.45;5.10;;;;;;;13.22;82.14;101249.22;5265090;28;20036;-69
2023/03/29 10:54:04;;;;;;;8.88;4.90;;;;;;;14.39;75.59;101248.81;5246229;28;20361;-71
2023/03/29 10:56:47;;;;;;;8.52;4.68;;;;;;;14.64;74.21;101235.22;5264401;28;20048;-71
2023/03/29 10:59:21;;;;;;;9.73;4.88;;;;;;;15.89;70.02;101240.00;5264458;28;20033;-71
2023/03/29 11:02:15;;;;;;;8.90;5.15;;;;;;;16.55;66.94;101227.53;5264259;28;20021;-71
2023/03/29 11:04:55;;;;;;;11.00;4.55;;;;;;;15.90;66.67;101241.72;5263200;28;20079;-72
2023/03/29 11:08:03;;;;;;;8.50;4.15;;;;;;;16.05;66.23;101236.03;5264775;28;20051;-71
2023/03/29 11:11:09;;;;;;;9.80;4.82;;;;;;;16.45;65.82;101219.06;5264369;28;20526;-71
2023/03/29 11:14:15;;;;;;;10.50;4.82;;;;;;;16.44;64.54;101225.25;5262313;28;20045;-71
2023/03/29 11:17:02;;;;;;;9.25;4.93;;;;;;;16.75;62.62;101221.69;5263596;28;20115;-71
2023/03/29 11:19:47;;;;;;;7.95;4.10;;;;;;;16.01;63.33;101224.75;5263980;28;20384;-70
2023/03/29 11:22:29;;;;;;;8.77;4.45;;;;;;;15.96;64.96;101215.28;5264283;28;20423;-71
2023/03/29 11:25:25;;;;;;;7.07;4.50;;;;;;;15.88;64.52;101223.38;5264443;28;20051;-71
2023/03/29 11:28:20;;;;;;;8.35;4.55;;;;;;;15.44;67.45;101228.88;5263996;28;20309;-71
2023/03/29 11:31:04;;;;;;;9.20;4.68;;;;;;;15.20;68.17;101230.38;5263458;28;20028;-71
2023/03/29 11:33:50;;;;;;;11.57;4.72;;;;;;;14.84;69.82;101229.50;5263495;28;20114;-71
2023/03/29 11:36:44;;;;;;;9.32;4.90;;;;;;;14.94;69.28;101234.50;5263876;28;20040;-72
2023/03/29 11:39:34;;;;;;;6.97;4.03;;;;;;;15.07;69.80;101228.94;5257601;28;20037;-71
2023/03/29 11:42:22;;;;;;;11.80;5.32;;;;;;;15.14;69.37;101225.28;5263859;28;20460;-71
2023/03/29 11:44:56;;;;;;;9.07;4.57;;;;;;;16.54;64.31;101228.47;5262163;28;20029;-71
2023/03/29 11:47:35;;;;;;;9.40;4.88;;;;;;;16.65;60.69;101230.78;5263423;28;20111;-72
2023/03/29 11:50:14;;;;;;;8.98;4.53;;;;;;;17.42;60.02;101231.81;5263932;28;20032;-71
2023/03/29 11:52:52;;;;;;;8.40;4.40;;;;;;;17.94;57.54;101230.91;5262074;28;20063;-72
2023/03/29 11:55:27;;;;;;;9.88;4.22;;;;;;;17.47;57.32;101221.97;5263733;28;20029;-72
2023/03/29 11:58:04;;;;;;;6.50;4.50;;;;;;;17.16;60.12;101216.00;5262545;28;20108;-71
2023/03/29 12:00:42;;;;;;;13.07;4.70;;;;;;;17.20;59.21;101220.28;5263584;28;20056;-71
2023/03/29 12:03:35;;;;;;;7.93;4.60;;;;;;;17.46;59.13;101209.69;5263166;28;20078;-71
2023/03/29 12:06:19;;;;;;;8.95;4.30;;;;;;;17.80;56.50;101219.03;5263811;28;20087;-71
2023/03/29 12:09:00;;;;;;;8.63;4.57;;;;;;;17.65;58.08;101225.72;5263441;28;20040;-71
2023/03/29 12:11:39;;;;;;;8.45;4.68;;;;;;;16.71;60.51;101217.41;5262530;28;20037;-71